Time;durP1;ratioP1;P1;durP2;ratioP2;P2;SDS_P1;SDS_P2;PMS_P1;PMS_P2;Temp;Humidity;BMP_temperature;BMP_pressure;BME280_temperature;BME280_humidity;BME280_pressure;Samples;Min_cycle;Max_cycle;Signal;HPM_P1;HPM_P2
2023/04/13 00:00:21;;;;;;;7.65;4.65;;;;;;;12.06;100.00;100619.09;2072602;28;20363;-69
2023/04/13 00:01:44;;;;;;;6.97;3.63;;;;;;;12.03;100.00;100626.97;2075283;28;20136;-69
2023/04/13 00:03:07;;;;;;;8.73;4.30;;;;;;;11.92;100.00;100622.50;2075137;28;20072;-70
2023/04/13 00:04:30;;;;;;;7.72;4.20;;;;;;;11.78;100.00;100612.69;2070531;28;20061;-70
2023/04/13 00:05:52;;;;;;;6.78;4.18;;;;;;;11.75;100.00;100615.31;2076143;28;20072;-70
2023/04/13 00:07:15;;;;;;;6.93;4.30;;;;;;;11.75;100.00;100615.31;2071530;28;20641;-69
2023/04/13 00:08:37;;;;;;;6.03;4.07;;;;;;;11.78;100.00;100613.56;2070132;28;20061;-70
2023/04/13 00:10:01;;;;;;;8.10;4.15;;;;;;;11.78;100.00;100620.63;2079987;28;20044;-69
2023/04/13 00:11:23;;;;;;;5.63;3.80;;;;;;;11.76;100.00;100617.97;2077450;28;20045;-69
2023/04/13 00:12:47;;;;;;;6.47;4.45;;;;;;;11.75;100.00;100618.81;2070851;28;20054;-70
2023/04/13 00:14:11;;;;;;;8.77;3.83;;;;;;;11.76;100.00;100620.59;2070723;28;20141;-70
2023/04/13 00:15:35;;;;;;;5.85;3.80;;;;;;;11.77;100.00;100632.94;2074689;28;20528;-69
2023/04/13 00:16:56;;;;;;;6.57;4.35;;;;;;;11.77;100.00;100625.03;2077157;28;20095;-69
2023/04/13 00:18:19;;;;;;;9.05;4.82;;;;;;;11.76;100.00;100632.94;2062523;28;20034;-70
2023/04/13 00:19:46;;;;;;;9.23;5.32;;;;;;;11.72;100.00;100625.81;2064318;28;20498;-70
2023/04/13 00:21:09;;;;;;;10.00;4.85;;;;;;;11.68;100.00;100640.78;2069179;28;20497;-70
2023/04/13 00:22:30;;;;;;;9.85;4.32;;;;;;;11.62;100.00;100632.78;2070880;28;20049;-70
2023/04/13 00:23:53;;;;;;;8.40;4.18;;;;;;;11.61;100.00;100643.38;2070284;28;20053;-69
2023/04/13 00:25:15;;;;;;;7.68;4.55;;;;;;;11.58;100.00;100641.56;2075173;28;20068;-69
2023/04/13 00:26:39;;;;;;;6.93;3.95;;;;;;;11.57;100.00;100651.25;2063267;28;20054;-69
2023/04/13 00:28:02;;;;;;;8.32;4.72;;;;;;;11.56;100.00;100651.22;2074899;28;20061;-70
2023/04/13 00:29:26;;;;;;;6.22;3.83;;;;;;;11.54;100.00;100647.69;2078797;28;20042;-70
2023/04/13 00:30:49;;;;;;;7.43;4.25;;;;;;;11.53;100.00;100644.16;2077445;28;20052;-70
2023/04/13 00:32:10;;;;;;;8.80;4.55;;;;;;;11.53;100.00;100653.84;2069940;28;20156;-70
2023/04/13 00:33:32;;;;;;;6.75;4.20;;;;;;;11.52;100.00;100652.97;2077452;28;20037;-69
2023/04/13 00:34:54;;;;;;;6.80;4.00;;;;;;;11.54;100.00;100653.00;2068568;28;20526;-70
2023/04/13 00:36:16;;;;;;;7.38;4.03;;;;;;;11.54;100.00;100647.69;2066743;28;20049;-70
2023/04/13 00:37:38;;;;;;;5.45;3.60;;;;;;;11.53;100.00;100652.09;2062450;28;20137;-70
2023/04/13 00:39:00;;;;;;;;;;;;;;;11.48;100.00;100645.88;2073932;28;20465;-71
2023/04/13 00:40:23;;;;;;;7.60;4.18;;;;;;;11.50;100.00;100653.81;2076300;28;20485;-69
2023/04/13 00:41:45;;;;;;;8.95;4.38;;;;;;;11.50;100.00;100652.06;2062182;28;20053;-69
2023/04/13 00:43:08;;;;;;;5.32;3.70;;;;;;;11.46;100.00;100652.91;2066329;28;20050;-70
2023/04/13 00:44:31;;;;;;;7.78;4.38;;;;;;;11.44;100.00;100653.75;2066775;28;20056;-70
2023/04/13 00:45:53;;;;;;;5.57;3.70;;;;;;;11.42;100.00;100642.31;2067702;28;20049;-70
2023/04/13 00:47:21;;;;;;;6.82;4.20;;;;;;;11.38;100.00;100648.41;2072177;28;20397;-70
2023/04/13 00:48:44;;;;;;;6.57;3.85;;;;;;;11.36;100.00;100645.75;2069933;28;20147;-70
2023/04/13 00:50:06;;;;;;;6.05;4.18;;;;;;;11.37;100.00;100650.16;2066071;28;20046;-70
2023/04/13 00:51:29;;;;;;;7.13;4.20;;;;;;;11.37;100.00;100647.50;2070137;28;20061;-70
2023/04/13 00:52:53;;;;;;;6.18;3.60;;;;;;;11.35;100.00;100636.06;2077791;28;20042;-70
2023/04/13 00:54:15;;;;;;;7.30;4.10;;;;;;;11.35;100.00;100643.09;2069626;28;20097;-70
2023/04/13 00:55:41;;;;;;;5.90;3.83;;;;;;;11.33;100.00;100650.13;2078363;28;20460;-70
2023/04/13 00:57:03;;;;;;;5.60;3.42;;;;;;;11.30;100.00;100639.50;2068182;28;21062;-70
2023/04/13 00:58:26;;;;;;;7.55;4.10;;;;;;;11.30;100.00;100642.16;2076957;28;20044;-68
2023/04/13 00:59:51;;;;;;;6.90;4.00;;;;;;;11.29;100.00;100643.03;2061361;28;20077;-69
2023/04/13 01:01:13;;;;;;;6.45;4.10;;;;;;;11.28;100.00;100646.56;2072986;28;20607;-69
2023/04/13 01:02:35;;;;;;;6.18;3.80;;;;;;;11.27;100.00;100644.78;2077488;28;20095;-69
2023/04/13 01:03:58;;;;;;;8.60;4.22;;;;;;;11.24;100.00;100650.00;2068163;28;20046;-69
2023/04/13 01:05:20;;;;;;;8.13;4.25;;;;;;;11.17;100.00;100647.31;2077729;28;20977;-69
2023/04/13 01:06:49;;;;;;;6.85;3.88;;;;;;;11.13;100.00;100644.63;2074782;28;20410;-69
2023/04/13 01:08:17;;;;;;;7.60;3.88;;;;;;;11.10;100.00;100642.81;2067978;28;20525;-69
2023/04/13 01:09:43;;;;;;;8.50;4.15;;;;;;;11.08;100.00;100648.97;2078897;28;20042;-69
2023/04/13 01:11:13;;;;;;;6.72;3.92;;;;;;;11.08;100.00;100647.22;2074062;28;20144;-69
2023/04/13 01:12:39;;;;;;;6.07;3.88;;;;;;;11.07;100.00;100647.19;2076691;28;20046;-69
2023/04/13 01:14:09;;;;;;;7.13;3.85;;;;;;;11.06;100.00;100651.59;2082705;28;20815;-69
2023/04/13 01:15:40;;;;;;;6.35;4.07;;;;;;;11.07;100.00;100647.19;2064346;28;20089;-68
2023/04/13 01:17:09;;;;;;;7.13;3.75;;;;;;;11.04;100.00;100648.03;2077184;28;20061;-69
2023/04/13 01:18:36;;;;;;;6.20;3.30;;;;;;;11.03;100.00;100654.19;2071822;28;20072;-71
2023/04/13 01:20:00;;;;;;;5.43;3.05;;;;;;;11.03;100.00;100654.19;2068185;28;20408;-68
2023/04/13 01:21:29;;;;;;;3.97;2.90;;;;;;;11.08;100.00;100652.50;2060414;28;20438;-69
2023/04/13 01:22:59;;;;;;;6.05;3.10;;;;;;;11.17;100.00;100659.63;2076126;28;20409;-69
2023/04/13 01:24:32;;;;;;;4.45;2.83;;;;;;;11.29;100.00;100653.63;2062721;28;20049;-69
2023/04/13 01:25:57;;;;;;;6.18;2.90;;;;;;;11.35;100.00;100645.75;2070041;28;20161;-70
2023/04/13 01:27:32;;;;;;;7.80;3.92;;;;;;;11.40;100.00;100651.97;2066375;28;20406;-70
2023/04/13 01:28:55;;;;;;;7.03;4.13;;;;;;;11.41;100.00;100649.34;2069522;28;20674;-69
2023/04/13 01:30:20;;;;;;;6.80;3.92;;;;;;;11.40;100.00;100641.38;2069346;28;20046;-70
2023/04/13 01:31:45;;;;;;;6.57;3.83;;;;;;;11.36;100.00;100643.09;2065772;28;20084;-69
2023/04/13 01:33:08;;;;;;;7.68;3.83;;;;;;;11.31;100.00;100638.63;2067607;28;20072;-69
2023/04/13 01:34:31;;;;;;;6.30;3.10;;;;;;;11.25;100.00;100642.09;2070038;28;20469;-69
2023/04/13 01:35:53;;;;;;;7.28;3.72;;;;;;;11.20;100.00;100641.19;2072243;28;20037;-69
2023/04/13 01:37:16;;;;;;;6.22;3.60;;;;;;;11.13;100.00;100641.97;2072270;28;20050;-69
2023/04/13 01:38:39;;;;;;;5.20;3.45;;;;;;;11.11;100.00;100639.31;2068977;28;20058;-69
2023/04/13 01:40:11;;;;;;;5.78;2.92;;;;;;;11.12;100.00;100642.84;2072081;28;20062;-70
2023/04/13 01:41:38;;;;;;;5.40;3.15;;;;;;;11.10;100.00;100640.19;2071660;28;20140;-69
2023/04/13 01:43:01;;;;;;;4.78;3.00;;;;;;;11.11;100.00;100649.88;2069695;28;20593;-70
2023/04/13 01:44:36;;;;;;;6.28;3.63;;;;;;;11.13;100.00;100642.88;2065737;28;20077;-70
2023/04/13 01:46:03;;;;;;;6.45;3.38;;;;;;;11.14;100.00;100644.66;2060920;28;20466;-70
2023/04/13 01:47:28;;;;;;;5.18;3.47;;;;;;;11.13;100.00;100642.88;2066553;28;20112;-70
2023/04/13 01:49:11;;;;;;;4.80;3.03;;;;;;;11.11;100.00;100639.31;2078865;28;20133;-69
2023/04/13 01:50:53;;;;;;;4.80;3.17;;;;;;;11.14;100.00;100641.13;2080891;28;20423;-69
2023/04/13 01:52:33;;;;;;;4.82;2.88;;;;;;;11.18;100.00;100646.44;2070350;28;20096;-69
2023/04/13 01:54:03;;;;;;;5.85;3.50;;;;;;;11.19;100.00;100648.22;2068443;28;20057;-70
2023/04/13 01:55:25;;;;;;;6.18;4.05;;;;;;;11.19;100.00;100639.41;2075405;28;20506;-70
2023/04/13 01:56:51;;;;;;;5.68;3.53;;;;;;;11.17;100.00;100643.78;2067806;28;20160;-69
2023/04/13 01:58:15;;;;;;;5.85;3.67;;;;;;;11.12;100.00;100635.81;2061565;28;20501;-70
2023/04/13 01:59:44;;;;;;;6.75;3.42;;;;;;;11.08;100.00;100636.66;2061397;28;20054;-70
2023/04/13 02:01:11;;;;;;;8.57;3.80;;;;;;;11.07;100.00;100647.19;2066275;28;20109;-70
2023/04/13 02:02:33;;;;;;;8.02;4.32;;;;;;;11.03;100.00;100648.91;2067338;28;20498;-71
2023/04/13 02:03:55;;;;;;;5.35;3.80;;;;;;;10.94;100.00;100645.28;2090529;28;20151;-70
2023/04/13 02:05:20;;;;;;;6.63;3.67;;;;;;;10.86;100.00;100649.56;2070035;28;20034;-71
2023/04/13 02:06:43;;;;;;;7.65;3.67;;;;;;;10.77;100.00;100645.94;2074040;28;20095;-70
2023/04/13 02:08:05;;;;;;;6.03;3.38;;;;;;;10.75;100.00;100649.44;2055809;28;20117;-69
2023/04/13 02:09:31;;;;;;;7.35;4.35;;;;;;;10.76;100.00;100651.22;2069174;28;20045;-70
2023/04/13 02:10:52;;;;;;;5.57;3.75;;;;;;;10.75;100.00;100654.72;2066525;28;20055;-69
2023/04/13 02:12:15;;;;;;;7.13;3.65;;;;;;;10.76;100.00;100651.22;2073573;28;20472;-69
2023/04/13 02:13:39;;;;;;;6.43;3.58;;;;;;;10.77;100.00;100661.78;2077189;28;20037;-70
2023/04/13 02:15:01;;;;;;;7.85;4.30;;;;;;;10.76;100.00;100660.00;2061499;28;20078;-70
2023/04/13 02:16:24;;;;;;;8.25;3.95;;;;;;;10.75;100.00;100654.72;2065565;28;20147;-69
2023/04/13 02:17:47;;;;;;;7.03;3.67;;;;;;;10.76;100.00;100662.63;2073154;28;20515;-69
2023/04/13 02:19:09;;;;;;;8.40;4.30;;;;;;;10.76;100.00;100667.91;2063941;28;20038;-70
2023/04/13 02:20:37;;;;;;;5.63;3.47;;;;;;;10.70;100.00;100662.56;2061040;28;20077;-71
2023/04/13 02:22:00;;;;;;;6.07;3.70;;;;;;;10.64;100.00;100666.88;2063061;28;20046;-70
2023/04/13 02:23:21;;;;;;;6.53;3.58;;;;;;;10.61;100.00;100675.66;2067134;28;20672;-69
2023/04/13 02:24:43;;;;;;;6.00;3.50;;;;;;;10.61;100.00;100674.78;2065895;28;20041;-70
2023/04/13 02:26:06;;;;;;;5.10;3.47;;;;;;;10.63;100.00;100678.31;2062616;28;20053;-70
2023/04/13 02:27:29;;;;;;;6.35;3.70;;;;;;;10.62;100.00;100672.16;2059481;28;20657;-70
2023/04/13 02:28:53;;;;;;;5.78;3.60;;;;;;;10.63;100.00;100665.97;2066431;28;20042;-69
2023/04/13 02:30:16;;;;;;;5.40;3.50;;;;;;;10.60;100.00;100670.34;2069970;28;20072;-70
2023/04/13 02:31:43;;;;;;;5.65;3.13;;;;;;;10.61;100.00;100675.66;2072067;28;20084;-70
2023/04/13 02:33:06;;;;;;;7.25;3.75;;;;;;;10.62;100.00;100680.06;2070370;28;20077;-70
2023/04/13 02:34:28;;;;;;;10.10;3.72;;;;;;;10.64;100.00;100677.44;2075829;28;20557;-70
2023/04/13 02:35:51;;;;;;;8.05;4.13;;;;;;;10.61;100.00;100680.03;2069777;28;20053;-70
2023/04/13 02:37:14;;;;;;;7.68;3.83;;;;;;;10.54;100.00;100683.47;2068481;28;20076;-70
2023/04/13 02:38:36;;;;;;;5.60;3.63;;;;;;;10.48;100.00;100689.53;2067170;28;20145;-70
2023/04/13 02:40:10;;;;;;;6.10;4.07;;;;;;;10.43;100.00;100682.44;2075888;28;20056;-70
2023/04/13 02:41:31;;;;;;;6.78;3.85;;;;;;;10.34;100.00;100689.34;2076455;28;20046;-69
2023/04/13 02:42:55;;;;;;;7.65;4.18;;;;;;;10.31;100.00;100691.91;2062254;28;20080;-70
2023/04/13 02:44:20;;;;;;;7.22;4.25;;;;;;;10.34;100.00;100685.81;2066540;28;20038;-69
2023/04/13 02:45:48;;;;;;;7.35;3.90;;;;;;;10.38;100.00;100699.06;2067690;28;20152;-69
2023/04/13 02:47:12;;;;;;;7.15;4.07;;;;;;;10.42;100.00;100685.94;2071877;28;20398;-70
2023/04/13 02:48:35;;;;;;;7.53;4.38;;;;;;;10.45;100.00;100694.75;2069748;28;20050;-69
2023/04/13 02:50:00;;;;;;;7.93;4.47;;;;;;;10.47;100.00;100705.34;2075630;28;20131;-69
2023/04/13 02:51:31;;;;;;;6.65;4.00;;;;;;;10.48;100.00;100707.13;2062611;28;20050;-69
2023/04/13 02:52:52;;;;;;;8.35;4.47;;;;;;;10.44;100.00;100703.53;2065737;28;20041;-69
2023/04/13 02:54:14;;;;;;;7.60;4.70;;;;;;;10.40;100.00;100701.72;2069073;28;20084;-69
2023/04/13 02:55:42;;;;;;;6.75;4.10;;;;;;;10.39;100.00;100702.59;2066322;28;20038;-70
2023/04/13 02:57:06;;;;;;;7.35;3.97;;;;;;;10.36;100.00;100703.44;2069680;28;20057;-69
2023/04/13 02:58:32;;;;;;;7.22;4.38;;;;;;;10.38;100.00;100701.69;2066901;28;20050;-69
2023/04/13 02:59:59;;;;;;;5.38;3.83;;;;;;;10.39;100.00;100708.75;2074996;28;20116;-71
2023/04/13 03:01:30;;;;;;;8.45;4.32;;;;;;;10.39;100.00;100707.88;2063875;28;20522;-70
2023/04/13 03:02:53;;;;;;;8.32;4.47;;;;;;;10.40;100.00;100712.28;2066784;28;20057;-70
2023/04/13 03:04:16;;;;;;;6.30;4.15;;;;;;;10.40;100.00;100712.28;2061191;28;20046;-70
2023/04/13 03:05:39;;;;;;;7.50;4.22;;;;;;;10.41;100.00;100705.25;2070518;28;20041;-69
2023/04/13 03:07:08;;;;;;;7.50;4.43;;;;;;;10.40;100.00;100709.66;2060431;28;20046;-70
2023/04/13 03:08:35;;;;;;;7.80;4.57;;;;;;;10.38;100.00;100711.34;2071881;28;20053;-70
2023/04/13 03:10:04;;;;;;;7.30;4.70;;;;;;;10.38;100.00;100701.69;2073659;28;20063;-69
2023/04/13 03:11:27;;;;;;;6.88;4.90;;;;;;;10.39;100.00;100706.13;2074706;28;20395;-68
2023/04/13 03:13:01;;;;;;;7.25;5.00;;;;;;;10.40;100.00;100709.66;2069922;28;20050;-69
2023/04/13 03:14:22;;;;;;;9.52;5.95;;;;;;;10.41;100.00;100703.50;2066882;28;20053;-69
2023/04/13 03:15:56;;;;;;;11.10;4.80;;;;;;;10.43;100.00;100709.72;2068080;28;20041;-69
2023/04/13 03:17:21;;;;;;;9.23;4.40;;;;;;;10.42;100.00;100712.31;2059259;28;20494;-69
2023/04/13 03:18:44;;;;;;;8.23;4.22;;;;;;;10.41;100.00;100710.53;2067506;28;20494;-69
2023/04/13 03:20:12;;;;;;;10.13;4.45;;;;;;;10.41;100.00;100726.38;2075680;28;20076;-69
2023/04/13 03:21:37;;;;;;;7.63;4.70;;;;;;;10.40;100.00;100728.13;2063342;28;20529;-68
2023/04/13 03:23:04;;;;;;;6.63;4.10;;;;;;;10.41;100.00;100729.00;2067975;28;20754;-69
2023/04/13 03:24:29;;;;;;;10.15;4.75;;;;;;;10.42;100.00;100729.03;2061445;28;20046;-69
2023/04/13 03:25:59;;;;;;;6.97;3.88;;;;;;;10.44;100.00;100727.28;2052477;28;20165;-69
2023/04/13 03:27:21;;;;;;;6.72;4.03;;;;;;;10.45;100.00;100734.34;2064921;28;20045;-69
2023/04/13 03:28:46;;;;;;;7.55;3.90;;;;;;;10.47;100.00;100735.25;2061323;28;20073;-69
2023/04/13 03:30:10;;;;;;;6.00;3.72;;;;;;;10.49;100.00;100735.28;2068315;28;20041;-69
2023/04/13 03:31:43;;;;;;;8.50;4.38;;;;;;;10.51;100.00;100736.19;2068890;28;20534;-69
2023/04/13 03:33:05;;;;;;;9.82;4.45;;;;;;;10.53;100.00;100735.34;2063267;28;20723;-70
2023/04/13 03:34:31;;;;;;;7.70;4.82;;;;;;;10.57;100.00;100744.19;2068350;28;20052;-69
2023/04/13 03:35:56;;;;;;;7.78;4.05;;;;;;;10.60;100.00;100741.63;2067185;28;20103;-70
2023/04/13 03:37:28;;;;;;;10.10;4.38;;;;;;;10.61;100.00;100744.28;2074943;28;20080;-70
2023/04/13 03:38:50;;;;;;;9.60;5.07;;;;;;;10.64;100.00;100746.06;2070885;28;20042;-69
2023/04/13 03:40:13;;;;;;;7.40;5.07;;;;;;;10.65;100.00;100750.47;2074363;28;20045;-69
2023/04/13 03:41:45;;;;;;;8.07;5.13;;;;;;;10.60;100.00;100755.69;2071958;28;20049;-69
2023/04/13 03:43:07;;;;;;;10.05;6.00;;;;;;;10.54;100.00;100755.63;2064883;28;20136;-70
2023/04/13 03:44:33;;;;;;;13.40;7.18;;;;;;;10.52;100.00;100757.31;2067230;28;20545;-68
2023/04/13 03:45:57;;;;;;;11.35;6.75;;;;;;;10.49;100.00;100761.69;2074433;28;20513;-70
2023/04/13 03:47:21;;;;;;;11.95;6.90;;;;;;;10.47;100.00;100766.94;2068284;28;20045;-70
2023/04/13 03:48:45;;;;;;;12.85;8.75;;;;;;;10.47;100.00;100763.41;2069231;28;20149;-71
2023/04/13 03:50:12;;;;;;;21.40;17.63;;;;;;;10.46;100.00;100785.38;2061547;28;20042;-71
2023/04/13 03:51:34;;;;;;;15.05;11.40;;;;;;;10.42;100.00;100780.91;2075243;28;20076;-70
2023/04/13 03:52:56;;;;;;;14.57;10.15;;;;;;;10.41;100.00;100779.13;2068194;28;20096;-70
2023/04/13 03:54:19;;;;;;;11.50;7.03;;;;;;;10.36;100.00;100781.72;2065288;28;20084;-70
2023/04/13 03:55:41;;;;;;;9.90;7.70;;;;;;;10.33;100.00;100774.63;2072079;28;20037;-69
2023/04/13 03:57:04;;;;;;;14.77;10.23;;;;;;;10.35;100.00;100785.22;2066875;28;20678;-69
2023/04/13 03:58:29;;;;;;;12.45;7.85;;;;;;;10.35;100.00;100778.19;2069542;28;20498;-69
2023/04/13 03:59:51;;;;;;;14.23;10.63;;;;;;;10.38;100.00;100788.78;2066080;28;20432;-68
2023/04/13 04:01:24;;;;;;;16.05;11.43;;;;;;;10.43;100.00;100794.16;2078953;28;20200;-70
2023/04/13 04:02:48;;;;;;;12.57;10.10;;;;;;;10.49;100.00;100786.31;2069637;28;20085;-70
2023/04/13 04:04:18;;;;;;;16.63;11.88;;;;;;;10.54;100.00;100796.94;2068943;28;20050;-70
2023/04/13 04:05:42;;;;;;;10.95;8.75;;;;;;;10.59;100.00;100792.63;2065359;28;20053;-68
2023/04/13 04:07:05;;;;;;;12.88;10.27;;;;;;;10.61;100.00;100802.34;2070729;28;20048;-69
2023/04/13 04:08:27;;;;;;;11.98;8.38;;;;;;;10.67;100.00;100801.56;2071864;28;20061;-69
2023/04/13 04:09:52;;;;;;;12.55;7.53;;;;;;;10.72;100.00;100797.22;2071599;28;20038;-70
2023/04/13 04:11:21;;;;;;;11.52;7.60;;;;;;;10.77;100.00;100793.78;2069390;28;20060;-69
2023/04/13 04:12:43;;;;;;;10.45;8.80;;;;;;;10.84;100.00;100793.88;2067162;28;20085;-69
2023/04/13 04:14:06;;;;;;;12.38;10.55;;;;;;;10.90;100.00;100802.78;2067462;28;20111;-70
2023/04/13 04:15:27;;;;;;;11.38;9.50;;;;;;;10.95;100.00;100800.22;2074754;28;20046;-69
2023/04/13 04:16:55;;;;;;;10.10;7.55;;;;;;;10.99;100.00;100802.94;2066619;28;20053;-70
2023/04/13 04:18:19;;;;;;;10.63;6.95;;;;;;;11.06;100.00;100804.78;2065794;28;20046;-70
2023/04/13 04:19:42;;;;;;;9.43;6.82;;;;;;;11.13;100.00;100806.66;2066436;28;20058;-69
2023/04/13 04:21:05;;;;;;;9.70;6.90;;;;;;;11.23;100.00;100804.13;2068732;28;20129;-70
2023/04/13 04:22:28;;;;;;;8.52;6.32;;;;;;;11.29;100.00;100802.44;2066329;28;20058;-70
2023/04/13 04:23:53;;;;;;;8.25;4.75;;;;;;;11.37;100.00;100794.63;2065963;28;20050;-70
2023/04/13 04:25:20;;;;;;;10.73;5.40;;;;;;;11.43;100.00;100803.53;2075107;28;20509;-69
2023/04/13 04:26:49;;;;;;;6.40;4.43;;;;;;;11.51;100.00;100807.16;2065824;28;20038;-70
2023/04/13 04:28:16;;;;;;;7.60;4.30;;;;;;;11.59;100.00;100807.25;2068448;28;20536;-69
2023/04/13 04:29:47;;;;;;;9.27;4.65;;;;;;;11.67;100.00;100810.00;2068493;28;20061;-70
2023/04/13 04:31:23;;;;;;;6.00;4.22;;;;;;;11.77;100.00;100817.19;2077610;28;20136;-69
2023/04/13 04:32:51;;;;;;;8.68;4.82;;;;;;;11.86;100.00;100802.31;2070662;28;20147;-70
2023/04/13 04:34:16;;;;;;;6.90;4.32;;;;;;;11.97;100.00;100800.66;2076794;28;20152;-70
2023/04/13 04:35:42;;;;;;;7.65;4.40;;;;;;;12.08;100.00;100797.25;2068235;28;20494;-69
2023/04/13 04:37:04;;;;;;;8.18;3.78;;;;;;;12.16;100.00;100796.44;2067960;28;20056;-70
2023/04/13 04:38:31;;;;;;;7.85;3.50;;;;;;;12.20;100.00;100800.91;2056782;28;20054;-69
2023/04/13 04:39:58;;;;;;;9.20;4.38;;;;;;;12.25;100.00;100804.47;2073744;28;20058;-70
2023/04/13 04:41:21;;;;;;;7.85;3.50;;;;;;;12.33;100.00;100794.84;2073470;28;20045;-70
2023/04/13 04:42:48;;;;;;;8.38;3.50;;;;;;;12.41;100.00;100804.59;2064491;28;20058;-70
2023/04/13 04:44:29;;;;;;;9.32;3.88;;;;;;;12.48;100.00;100809.06;2069928;28;20073;-70
2023/04/13 04:45:57;;;;;;;6.53;3.25;;;;;;;12.53;100.00;100815.31;2069000;28;20100;-70
2023/04/13 04:47:19;;;;;;;8.57;4.35;;;;;;;12.61;100.00;100810.94;2068024;28;20432;-70
2023/04/13 04:49:01;;;;;;;8.57;4.00;;;;;;;12.74;100.00;100821.66;2079943;28;20049;-70
2023/04/13 04:50:27;;;;;;;7.32;4.05;;;;;;;12.90;100.00;100824.44;2078721;28;20084;-70
2023/04/13 04:51:57;;;;;;;7.93;4.85;;;;;;;13.02;100.00;100832.44;2070310;28;20514;-69
2023/04/13 04:53:21;;;;;;;8.77;3.58;;;;;;;13.18;100.00;100820.22;2067083;28;20069;-69
2023/04/13 04:54:43;;;;;;;10.10;3.75;;;;;;;13.30;100.00;100831.78;2068627;28;20084;-69
2023/04/13 04:56:07;;;;;;;5.85;3.67;;;;;;;13.41;100.00;100824.78;2066988;28;20599;-70
2023/04/13 04:57:48;;;;;;;6.95;3.45;;;;;;;13.54;100.00;100836.31;2071537;28;20569;-69
2023/04/13 04:59:12;;;;;;;5.82;3.20;;;;;;;13.65;100.00;100836.38;2069462;28;20038;-70
2023/04/13 05:00:48;;;;;;;4.50;2.80;;;;;;;13.76;100.00;100839.97;2069315;28;20107;-69
2023/04/13 05:02:11;;;;;;;5.63;2.97;;;;;;;13.88;100.00;100840.88;2068022;28;20208;-69
2023/04/13 05:03:34;;;;;;;6.18;3.60;;;;;;;14.01;100.00;100847.13;2066188;28;20060;-69
2023/04/13 05:05:11;;;;;;;7.13;3.58;;;;;;;14.17;100.00;100843.63;2076960;28;20041;-70
2023/04/13 05:06:39;;;;;;;6.22;3.20;;;;;;;14.32;100.00;100845.41;2073366;28;20058;-70
2023/04/13 05:08:03;;;;;;;7.00;3.60;;;;;;;14.44;100.00;100845.44;2062541;28;20526;-70
2023/04/13 05:09:26;;;;;;;5.43;3.03;;;;;;;14.56;100.00;100839.28;2080039;28;20048;-70
2023/04/13 05:10:51;;;;;;;6.25;2.95;;;;;;;14.67;100.00;100840.16;2065939;28;20080;-69
2023/04/13 05:12:14;;;;;;;6.25;3.65;;;;;;;14.77;100.00;100843.72;2066146;28;20046;-69
2023/04/13 05:13:40;;;;;;;5.40;2.92;;;;;;;14.84;100.00;100849.00;2068462;28;20429;-69
2023/04/13 05:15:12;;;;;;;6.97;3.30;;;;;;;14.97;100.00;100841.91;2077977;28;20045;-70
2023/04/13 05:16:35;;;;;;;5.38;3.15;;;;;;;15.08;100.00;100842.81;2070042;28;20050;-69
2023/04/13 05:18:05;;;;;;;5.90;3.15;;;;;;;15.19;100.00;100853.41;2069429;28;20083;-70
2023/04/13 05:19:27;;;;;;;5.38;2.88;;;;;;;15.28;100.00;100848.09;2067105;28;20050;-69
2023/04/13 05:20:56;;;;;;;7.47;3.63;;;;;;;15.39;100.00;100851.59;2068670;28;20433;-69
2023/04/13 05:22:21;;;;;;;7.22;2.90;;;;;;;15.50;100.00;100849.78;2058969;28;20043;-70
2023/04/13 05:23:52;;;;;;;6.85;3.40;;;;;;;15.57;100.00;100856.00;2069196;28;20146;-70
2023/04/13 05:25:15;;;;;;;6.15;3.40;;;;;;;15.65;100.00;100865.75;2063028;28;20495;-70
2023/04/13 05:26:37;;;;;;;8.63;3.50;;;;;;;15.74;100.00;100859.50;2071155;28;20060;-70
2023/04/13 05:28:00;;;;;;;7.75;3.47;;;;;;;15.81;100.00;100862.16;2067607;28;20058;-70
2023/04/13 05:29:23;;;;;;;7.15;3.50;;;;;;;15.88;100.00;100866.53;2068877;28;20076;-70
2023/04/13 05:30:44;;;;;;;7.07;3.35;;;;;;;15.97;100.00;100867.38;2080207;28;20045;-70
2023/04/13 05:32:07;;;;;;;6.93;3.15;;;;;;;16.03;100.00;100872.66;2067497;28;20553;-70
2023/04/13 05:33:30;;;;;;;7.85;3.20;;;;;;;16.12;100.00;100870.84;2071296;28;20049;-70
2023/04/13 05:34:53;;;;;;;7.82;3.17;;;;;;;16.19;100.00;100869.94;2075371;28;20462;-70
2023/04/13 05:36:18;;;;;;;8.30;3.30;;;;;;;16.23;100.00;100870.78;2062456;28;20081;-71
2023/04/13 05:37:43;;;;;;;;;;;;;;;16.26;100.00;100877.00;2058228;28;20133;-70
2023/04/13 05:39:12;;;;;;;5.53;3.47;;;;;;;16.37;100.00;100884.03;2067716;28;20478;-70
2023/04/13 05:40:35;;;;;;;7.30;3.72;;;;;;;16.53;100.00;100881.28;2062518;28;20054;-71
2023/04/13 05:41:58;;;;;;;6.70;3.13;;;;;;;16.71;100.00;100881.16;2070829;28;20045;-70
2023/04/13 05:43:22;;;;;;;8.00;3.92;;;;;;;16.91;100.00;100880.13;2063059;28;20088;-69
2023/04/13 05:44:46;;;;;;;6.80;3.45;;;;;;;17.11;100.00;100880.84;2074979;28;20053;-71
2023/04/13 05:46:10;;;;;;;7.65;3.10;;;;;;;17.28;100.00;100884.22;2073192;28;20112;-70
2023/04/13 05:47:33;;;;;;;8.23;3.60;;;;;;;17.46;100.00;100881.34;2068190;28;20492;-70
2023/04/13 05:49:04;;;;;;;8.93;3.60;;;;;;;17.69;100.00;100874.91;2069424;28;20054;-69
2023/04/13 05:50:26;;;;;;;8.07;3.58;;;;;;;17.90;100.00;100882.66;2070729;28;20096;-70
2023/04/13 05:51:50;;;;;;;9.40;3.83;;;;;;;18.09;100.00;100883.31;2069480;28;20057;-70
2023/04/13 05:53:15;;;;;;;6.63;3.10;;;;;;;18.25;100.00;100883.06;2069862;28;20049;-70
2023/04/13 05:54:48;;;;;;;8.75;3.85;;;;;;;18.42;100.00;100885.53;2070283;28;20119;-70
2023/04/13 05:56:13;;;;;;;8.18;3.75;;;;;;;18.59;100.00;100886.19;2066893;28;20095;-71
2023/04/13 05:57:36;;;;;;;7.03;3.40;;;;;;;18.78;100.00;100894.78;2068877;28;20050;-70
2023/04/13 05:59:03;;;;;;;8.23;3.58;;;;;;;18.95;99.10;100898.09;2070311;28;20045;-69
2023/04/13 06:00:26;;;;;;;7.85;3.42;;;;;;;19.10;98.19;100900.50;2063849;28;20069;-70
2023/04/13 06:01:55;;;;;;;8.82;3.83;;;;;;;19.27;96.35;100905.56;2070203;28;20742;-70
2023/04/13 06:03:19;;;;;;;8.45;3.47;;;;;;;19.43;96.26;100903.47;2086214;28;20102;-71
2023/04/13 06:04:42;;;;;;;7.57;3.28;;;;;;;19.58;94.51;100899.66;2084141;28;20136;-70
2023/04/13 06:06:07;;;;;;;6.75;3.47;;;;;;;19.71;91.21;100896.72;2070108;28;20061;-70
2023/04/13 06:07:30;;;;;;;7.63;3.83;;;;;;;19.82;90.59;100900.06;2071809;28;20041;-71
2023/04/13 06:08:54;;;;;;;6.70;3.03;;;;;;;19.95;90.05;100900.72;2074128;28;20053;-71
2023/04/13 06:10:18;;;;;;;7.28;3.40;;;;;;;20.06;89.22;100903.19;2078207;28;20053;-71
2023/04/13 06:11:41;;;;;;;8.18;3.40;;;;;;;20.16;87.53;100902.94;2067111;28;20073;-71
2023/04/13 06:13:04;;;;;;;8.77;3.80;;;;;;;20.27;86.15;100898.25;2067267;28;20073;-71
2023/04/13 06:14:26;;;;;;;9.90;3.70;;;;;;;20.36;84.47;100893.59;2074958;28;20119;-71
2023/04/13 06:15:49;;;;;;;10.57;3.80;;;;;;;20.43;81.62;100900.59;2070263;28;20517;-71
2023/04/13 06:17:11;;;;;;;8.88;3.67;;;;;;;20.52;80.37;100906.66;2065217;28;20141;-71
2023/04/13 06:18:34;;;;;;;11.07;3.72;;;;;;;20.60;80.07;100907.38;2065671;28;20505;-71
2023/04/13 06:19:56;;;;;;;8.93;3.63;;;;;;;20.61;79.10;100906.41;2067593;28;20149;-71
2023/04/13 06:21:19;;;;;;;7.25;3.22;;;;;;;20.64;80.66;100898.31;2067552;28;20065;-70
2023/04/13 06:22:42;;;;;;;8.40;3.28;;;;;;;20.74;82.85;100895.44;2065306;28;20383;-71
2023/04/13 06:24:08;;;;;;;9.25;4.10;;;;;;;20.88;82.61;100902.19;2067404;28;20064;-71
2023/04/13 06:25:32;;;;;;;8.57;3.65;;;;;;;21.00;82.79;100895.66;2063991;28;20189;-71
2023/04/13 06:26:55;;;;;;;10.05;4.13;;;;;;;21.12;81.38;100903.41;2066305;28;20044;-71
2023/04/13 06:28:18;;;;;;;10.60;3.38;;;;;;;21.22;81.21;100912.13;2072357;28;20041;-70
2023/04/13 06:29:45;;;;;;;10.90;3.65;;;;;;;21.32;79.83;100908.28;2068880;28;20038;-71
2023/04/13 06:31:11;;;;;;;7.97;4.10;;;;;;;21.40;77.56;100911.63;2068724;28;20599;-71